sensor_id;sensor_type;location;lat;lon;timestamp;pressure;altitude;pressure_sealevel;temperature;humidity
72308;BME280;60257;42.638;23.376;2022-12-10T00:01:42;93969.94;;;8.00;77.86
72308;BME280;60257;42.638;23.376;2022-12-10T00:04:09;93967.22;;;8.00;77.95
72308;BME280;60257;42.638;23.376;2022-12-10T00:06:36;93973.13;;;8.02;77.95
72308;BME280;60257;42.638;23.376;2022-12-10T00:09:04;93960.16;;;7.99;78.11
72308;BME280;60257;42.638;23.376;2022-12-10T00:11:30;93962.81;;;7.95;78.29
72308;BME280;60257;42.638;23.376;2022-12-10T00:13:56;93945.31;;;7.96;78.32
72308;BME280;60257;42.638;23.376;2022-12-10T00:16:24;93953.84;;;7.95;78.25
72308;BME280;60257;42.638;23.376;2022-12-10T00:18:50;93948.72;;;7.93;78.53
72308;BME280;60257;42.638;23.376;2022-12-10T00:21:22;93906.91;;;7.77;78.23
72308;BME280;60257;42.638;23.376;2022-12-10T00:23:48;93940.38;;;8.02;78.24
72308;BME280;60257;42.638;23.376;2022-12-10T00:28:48;93944.78;;;8.06;77.98
72308;BME280;60257;42.638;23.376;2022-12-10T00:31:17;93932.25;;;8.05;77.90
72308;BME280;60257;42.638;23.376;2022-12-10T00:33:44;93935.09;;;8.09;78.04
72308;BME280;60257;42.638;23.376;2022-12-10T00:36:19;93949.84;;;8.20;77.76
72308;BME280;60257;42.638;23.376;2022-12-10T00:38:45;93954.59;;;8.23;77.54
72308;BME280;60257;42.638;23.376;2022-12-10T00:41:12;93957.16;;;8.16;77.68
72308;BME280;60257;42.638;23.376;2022-12-10T00:43:38;93967.72;;;8.18;77.84
72308;BME280;60257;42.638;23.376;2022-12-10T00:46:04;93927.25;;;8.07;78.32
72308;BME280;60257;42.638;23.376;2022-12-10T00:48:30;93935.78;;;8.06;78.29
72308;BME280;60257;42.638;23.376;2022-12-10T00:51:02;93950.09;;;8.15;78.00
72308;BME280;60257;42.638;23.376;2022-12-10T00:53:29;93917.06;;;8.04;77.64
72308;BME280;60257;42.638;23.376;2022-12-10T00:55:55;93955.31;;;8.20;77.97
72308;BME280;60257;42.638;23.376;2022-12-10T00:58:21;93953.63;;;8.16;78.11
72308;BME280;60257;42.638;23.376;2022-12-10T01:00:47;93963.84;;;8.19;78.15
72308;BME280;60257;42.638;23.376;2022-12-10T01:03:13;93956.69;;;8.14;78.41
72308;BME280;60257;42.638;23.376;2022-12-10T01:05:39;93962.03;;;7.95;79.17
72308;BME280;60257;42.638;23.376;2022-12-10T01:08:04;93954.09;;;8.05;78.91
72308;BME280;60257;42.638;23.376;2022-12-10T01:10:30;93954.47;;;8.04;78.82
72308;BME280;60257;42.638;23.376;2022-12-10T01:12:55;93945.34;;;8.12;78.58
72308;BME280;60257;42.638;23.376;2022-12-10T01:15:21;93955.09;;;8.13;78.58
72308;BME280;60257;42.638;23.376;2022-12-10T01:17:46;93945.91;;;8.05;78.70
72308;BME280;60257;42.638;23.376;2022-12-10T01:20:12;93961.47;;;8.17;78.40
72308;BME280;60257;42.638;23.376;2022-12-10T01:22:37;93943.41;;;8.13;78.47
72308;BME280;60257;42.638;23.376;2022-12-10T01:25:03;93935.97;;;8.13;78.65
72308;BME280;60257;42.638;23.376;2022-12-10T01:27:29;93927.22;;;8.20;78.57
72308;BME280;60257;42.638;23.376;2022-12-10T01:29:54;93925.22;;;8.32;77.88
72308;BME280;60257;42.638;23.376;2022-12-10T01:32:20;93924.03;;;8.18;78.51
72308;BME280;60257;42.638;23.376;2022-12-10T01:34:46;93924.47;;;8.20;78.52
72308;BME280;60257;42.638;23.376;2022-12-10T01:37:12;93912.50;;;8.24;78.48
72308;BME280;60257;42.638;23.376;2022-12-10T01:39:37;93922.34;;;8.29;78.41
72308;BME280;60257;42.638;23.376;2022-12-10T01:42:03;93917.91;;;8.36;78.06
72308;BME280;60257;42.638;23.376;2022-12-10T01:46:56;93922.84;;;8.46;78.06
72308;BME280;60257;42.638;23.376;2022-12-10T01:49:34;93911.25;;;8.65;77.55
72308;BME280;60257;42.638;23.376;2022-12-10T01:52:00;93898.34;;;8.81;77.15
72308;BME280;60257;42.638;23.376;2022-12-10T01:54:29;93908.38;;;9.09;76.68
72308;BME280;60257;42.638;23.376;2022-12-10T01:57:04;93913.25;;;9.35;74.63
72308;BME280;60257;42.638;23.376;2022-12-10T01:59:32;93896.66;;;9.43;74.21
72308;BME280;60257;42.638;23.376;2022-12-10T02:07:51;93906.09;;;9.84;73.05
72308;BME280;60257;42.638;23.376;2022-12-10T02:15:44;93913.06;;;10.01;71.81
72308;BME280;60257;42.638;23.376;2022-12-10T02:18:20;93920.56;;;9.85;72.70
72308;BME280;60257;42.638;23.376;2022-12-10T02:20:50;93919.03;;;9.68;73.22
72308;BME280;60257;42.638;23.376;2022-12-10T02:23:37;93917.25;;;9.56;73.55
72308;BME280;60257;42.638;23.376;2022-12-10T02:26:22;93923.56;;;9.41;74.09
72308;BME280;60257;42.638;23.376;2022-12-10T02:31:43;93892.06;;;9.12;74.93
72308;BME280;60257;42.638;23.376;2022-12-10T02:34:10;93895.13;;;9.11;74.99
72308;BME280;60257;42.638;23.376;2022-12-10T02:36:39;93899.84;;;8.95;76.12
72308;BME280;60257;42.638;23.376;2022-12-10T02:39:10;93897.00;;;8.91;75.95
72308;BME280;60257;42.638;23.376;2022-12-10T02:41:40;93897.16;;;8.98;76.01
72308;BME280;60257;42.638;23.376;2022-12-10T02:44:11;93888.25;;;9.01;76.19
72308;BME280;60257;42.638;23.376;2022-12-10T02:46:38;93880.81;;;9.17;75.42
72308;BME280;60257;42.638;23.376;2022-12-10T02:49:06;93881.69;;;9.21;75.37
72308;BME280;60257;42.638;23.376;2022-12-10T02:51:33;93869.38;;;9.12;75.75
72308;BME280;60257;42.638;23.376;2022-12-10T02:54:04;93864.97;;;9.07;76.35
72308;BME280;60257;42.638;23.376;2022-12-10T02:59:17;93867.13;;;9.91;73.91
72308;BME280;60257;42.638;23.376;2022-12-10T03:02:19;93874.38;;;10.22;72.95
72308;BME280;60257;42.638;23.376;2022-12-10T03:07:53;93882.19;;;10.65;71.63
72308;BME280;60257;42.638;23.376;2022-12-10T03:10:33;93869.47;;;10.12;71.99
72308;BME280;60257;42.638;23.376;2022-12-10T03:13:06;93874.41;;;9.83;73.57
72308;BME280;60257;42.638;23.376;2022-12-10T03:15:34;93870.19;;;10.09;72.97
72308;BME280;60257;42.638;23.376;2022-12-10T03:18:05;93878.66;;;10.42;72.04
72308;BME280;60257;42.638;23.376;2022-12-10T03:20:33;93879.56;;;10.72;71.28
72308;BME280;60257;42.638;23.376;2022-12-10T03:23:00;93868.81;;;10.60;70.51
72308;BME280;60257;42.638;23.376;2022-12-10T03:25:29;93873.50;;;10.18;72.11
72308;BME280;60257;42.638;23.376;2022-12-10T03:27:58;93865.44;;;10.06;72.47
72308;BME280;60257;42.638;23.376;2022-12-10T03:30:24;93874.31;;;9.80;73.64
72308;BME280;60257;42.638;23.376;2022-12-10T03:32:51;93864.09;;;9.77;73.75
72308;BME280;60257;42.638;23.376;2022-12-10T03:35:19;93864.72;;;9.70;74.11
72308;BME280;60257;42.638;23.376;2022-12-10T03:37:46;93865.94;;;9.53;74.59
72308;BME280;60257;42.638;23.376;2022-12-10T03:40:13;93880.53;;;9.57;74.66
72308;BME280;60257;42.638;23.376;2022-12-10T03:42:39;93881.44;;;9.46;74.99
72308;BME280;60257;42.638;23.376;2022-12-10T03:45:05;93878.28;;;9.44;74.95
72308;BME280;60257;42.638;23.376;2022-12-10T03:47:30;93864.00;;;9.35;75.20
72308;BME280;60257;42.638;23.376;2022-12-10T03:49:56;93867.81;;;9.30;75.51
72308;BME280;60257;42.638;23.376;2022-12-10T03:52:22;93895.25;;;9.34;75.50
72308;BME280;60257;42.638;23.376;2022-12-10T03:54:47;93811.09;;;8.92;75.30
72308;BME280;60257;42.638;23.376;2022-12-10T03:57:13;93869.91;;;9.37;75.34
72308;BME280;60257;42.638;23.376;2022-12-10T03:59:38;93861.41;;;9.42;74.97
72308;BME280;60257;42.638;23.376;2022-12-10T04:02:04;93836.00;;;9.41;74.92
72308;BME280;60257;42.638;23.376;2022-12-10T04:04:29;93860.41;;;9.50;74.84
72308;BME280;60257;42.638;23.376;2022-12-10T04:06:55;93842.25;;;9.42;75.10
72308;BME280;60257;42.638;23.376;2022-12-10T04:09:20;93845.06;;;9.26;76.14
72308;BME280;60257;42.638;23.376;2022-12-10T04:11:46;93841.19;;;9.27;75.80
72308;BME280;60257;42.638;23.376;2022-12-10T04:14:12;93844.72;;;9.27;75.81
72308;BME280;60257;42.638;23.376;2022-12-10T04:16:56;93834.25;;;9.33;75.91
72308;BME280;60257;42.638;23.376;2022-12-10T04:19:22;93821.88;;;9.39;75.13
72308;BME280;60257;42.638;23.376;2022-12-10T04:21:48;93836.41;;;9.62;74.77
72308;BME280;60257;42.638;23.376;2022-12-10T04:24:34;93825.47;;;9.62;74.79
72308;BME280;60257;42.638;23.376;2022-12-10T04:27:23;93830.91;;;9.59;75.25
72308;BME280;60257;42.638;23.376;2022-12-10T04:29:49;93841.91;;;9.62;75.40
72308;BME280;60257;42.638;23.376;2022-12-10T04:32:15;93859.13;;;9.63;75.34
72308;BME280;60257;42.638;23.376;2022-12-10T04:34:41;93850.09;;;9.62;75.31
72308;BME280;60257;42.638;23.376;2022-12-10T04:37:07;93855.59;;;9.62;75.87
72308;BME280;60257;42.638;23.376;2022-12-10T04:39:32;93857.81;;;9.76;75.29
72308;BME280;60257;42.638;23.376;2022-12-10T04:41:59;93868.34;;;9.74;75.76
72308;BME280;60257;42.638;23.376;2022-12-10T04:44:25;93878.56;;;9.58;76.61
72308;BME280;60257;42.638;23.376;2022-12-10T04:46:50;93885.81;;;9.31;77.87
72308;BME280;60257;42.638;23.376;2022-12-10T04:49:16;93890.22;;;9.36;77.55
72308;BME280;60257;42.638;23.376;2022-12-10T04:51:42;93883.34;;;9.26;78.08
72308;BME280;60257;42.638;23.376;2022-12-10T04:54:08;93897.03;;;9.26;78.64
72308;BME280;60257;42.638;23.376;2022-12-10T04:56:34;93894.53;;;9.02;80.04
72308;BME280;60257;42.638;23.376;2022-12-10T04:59:01;93876.72;;;8.92;80.48
72308;BME280;60257;42.638;23.376;2022-12-10T05:01:27;93882.44;;;9.03;79.97
72308;BME280;60257;42.638;23.376;2022-12-10T05:03:53;93885.00;;;9.11;79.68
72308;BME280;60257;42.638;23.376;2022-12-10T05:06:19;93880.38;;;9.15;79.58
72308;BME280;60257;42.638;23.376;2022-12-10T05:08:46;93881.63;;;9.18;79.38
72308;BME280;60257;42.638;23.376;2022-12-10T05:11:17;93872.91;;;9.12;79.61
72308;BME280;60257;42.638;23.376;2022-12-10T05:13:43;93864.97;;;9.07;79.87
72308;BME280;60257;42.638;23.376;2022-12-10T05:16:11;93886.84;;;9.07;80.03
72308;BME280;60257;42.638;23.376;2022-12-10T05:18:37;93872.03;;;8.93;80.68
72308;BME280;60257;42.638;23.376;2022-12-10T05:21:05;93854.84;;;8.92;80.77
72308;BME280;60257;42.638;23.376;2022-12-10T05:23:33;93867.09;;;8.98;80.70
72308;BME280;60257;42.638;23.376;2022-12-10T05:26:00;93847.41;;;9.08;80.18
72308;BME280;60257;42.638;23.376;2022-12-10T05:28:26;93840.34;;;9.07;80.52
72308;BME280;60257;42.638;23.376;2022-12-10T05:30:53;93836.00;;;9.06;80.34
72308;BME280;60257;42.638;23.376;2022-12-10T05:33:18;93851.19;;;9.19;80.03
72308;BME280;60257;42.638;23.376;2022-12-10T05:36:01;93874.88;;;9.31;79.69
72308;BME280;60257;42.638;23.376;2022-12-10T05:38:29;93868.47;;;9.08;80.78
72308;BME280;60257;42.638;23.376;2022-12-10T05:40:55;93857.53;;;9.08;80.67
72308;BME280;60257;42.638;23.376;2022-12-10T05:43:25;93879.16;;;9.13;80.62
72308;BME280;60257;42.638;23.376;2022-12-10T05:45:50;93870.84;;;8.90;81.96
72308;BME280;60257;42.638;23.376;2022-12-10T05:48:16;93868.69;;;8.99;81.60
72308;BME280;60257;42.638;23.376;2022-12-10T05:50:42;93876.47;;;8.97;81.53
72308;BME280;60257;42.638;23.376;2022-12-10T05:53:07;93871.00;;;8.97;81.62
72308;BME280;60257;42.638;23.376;2022-12-10T05:55:33;93873.19;;;8.92;81.76
72308;BME280;60257;42.638;23.376;2022-12-10T05:57:59;93889.34;;;8.97;81.92
72308;BME280;60257;42.638;23.376;2022-12-10T06:00:26;93885.81;;;8.96;82.04
72308;BME280;60257;42.638;23.376;2022-12-10T06:02:52;93886.28;;;8.82;82.68
72308;BME280;60257;42.638;23.376;2022-12-10T06:05:17;93899.94;;;8.82;82.75
72308;BME280;60257;42.638;23.376;2022-12-10T06:07:43;93863.22;;;8.83;82.99
72308;BME280;60257;42.638;23.376;2022-12-10T06:10:09;93898.34;;;8.81;82.73
72308;BME280;60257;42.638;23.376;2022-12-10T06:12:36;93908.16;;;8.82;82.89
72308;BME280;60257;42.638;23.376;2022-12-10T06:15:02;93871.88;;;8.85;82.95
72308;BME280;60257;42.638;23.376;2022-12-10T06:17:28;93888.72;;;8.87;82.95
72308;BME280;60257;42.638;23.376;2022-12-10T06:19:53;93885.81;;;8.96;82.50
72308;BME280;60257;42.638;23.376;2022-12-10T06:22:18;93883.88;;;8.97;82.85
72308;BME280;60257;42.638;23.376;2022-12-10T06:24:44;93879.56;;;8.96;82.56
72308;BME280;60257;42.638;23.376;2022-12-10T06:27:09;93875.84;;;8.88;83.18
72308;BME280;60257;42.638;23.376;2022-12-10T06:29:35;93889.25;;;8.93;83.15
72308;BME280;60257;42.638;23.376;2022-12-10T06:32:00;93873.72;;;8.97;82.90
72308;BME280;60257;42.638;23.376;2022-12-10T06:34:26;93890.84;;;8.94;83.12
72308;BME280;60257;42.638;23.376;2022-12-10T06:36:51;93880.75;;;8.98;83.06
72308;BME280;60257;42.638;23.376;2022-12-10T06:39:17;93888.88;;;9.10;82.48
72308;BME280;60257;42.638;23.376;2022-12-10T06:41:42;93868.22;;;9.13;82.96
72308;BME280;60257;42.638;23.376;2022-12-10T06:44:10;93847.91;;;9.14;82.65
72308;BME280;60257;42.638;23.376;2022-12-10T06:46:36;93876.22;;;9.21;82.80
72308;BME280;60257;42.638;23.376;2022-12-10T06:49:03;93891.41;;;9.19;83.07
72308;BME280;60257;42.638;23.376;2022-12-10T06:51:28;93878.59;;;9.23;83.19
72308;BME280;60257;42.638;23.376;2022-12-10T06:53:55;93864.06;;;9.19;83.09
72308;BME280;60257;42.638;23.376;2022-12-10T06:56:20;93882.66;;;9.29;82.88
72308;BME280;60257;42.638;23.376;2022-12-10T06:58:47;93895.13;;;9.46;82.69
72308;BME280;60257;42.638;23.376;2022-12-10T07:01:17;93895.97;;;9.31;82.74
72308;BME280;60257;42.638;23.376;2022-12-10T07:03:50;93879.03;;;9.25;83.18
72308;BME280;60257;42.638;23.376;2022-12-10T07:06:18;93883.88;;;9.32;83.46
72308;BME280;60257;42.638;23.376;2022-12-10T07:08:44;93893.59;;;9.29;83.38
72308;BME280;60257;42.638;23.376;2022-12-10T07:11:16;93905.06;;;9.35;83.42
72308;BME280;60257;42.638;23.376;2022-12-10T07:13:42;93894.63;;;9.40;83.33
72308;BME280;60257;42.638;23.376;2022-12-10T07:16:26;93908.84;;;9.30;83.42
72308;BME280;60257;42.638;23.376;2022-12-10T07:18:52;93869.69;;;9.26;83.50
72308;BME280;60257;42.638;23.376;2022-12-10T07:21:24;93880.16;;;9.05;84.15
72308;BME280;60257;42.638;23.376;2022-12-10T07:23:51;93907.19;;;9.25;83.64
72308;BME280;60257;42.638;23.376;2022-12-10T07:26:17;93856.81;;;9.26;84.00
72308;BME280;60257;42.638;23.376;2022-12-10T07:28:42;93868.97;;;9.29;84.00
72308;BME280;60257;42.638;23.376;2022-12-10T07:31:08;93870.34;;;9.39;83.93
72308;BME280;60257;42.638;23.376;2022-12-10T07:33:35;93836.84;;;9.45;83.45
72308;BME280;60257;42.638;23.376;2022-12-10T07:36:08;93841.63;;;9.48;83.38
72308;BME280;60257;42.638;23.376;2022-12-10T07:38:34;93836.50;;;9.47;83.35
72308;BME280;60257;42.638;23.376;2022-12-10T07:41:05;93853.16;;;9.57;83.35
72308;BME280;60257;42.638;23.376;2022-12-10T07:43:34;93857.25;;;9.67;82.98
72308;BME280;60257;42.638;23.376;2022-12-10T07:48:39;93873.25;;;9.65;82.74
72308;BME280;60257;42.638;23.376;2022-12-10T07:51:05;93879.63;;;9.53;83.51
72308;BME280;60257;42.638;23.376;2022-12-10T07:53:32;93862.22;;;9.42;84.34
72308;BME280;60257;42.638;23.376;2022-12-10T07:55:58;93851.84;;;9.51;83.58
72308;BME280;60257;42.638;23.376;2022-12-10T07:58:23;93850.09;;;9.62;82.96
72308;BME280;60257;42.638;23.376;2022-12-10T08:00:49;93848.53;;;9.61;82.98
72308;BME280;60257;42.638;23.376;2022-12-10T08:03:15;93840.53;;;9.72;82.79
72308;BME280;60257;42.638;23.376;2022-12-10T08:05:40;93838.41;;;9.85;82.15
72308;BME280;60257;42.638;23.376;2022-12-10T08:08:06;93828.38;;;9.92;81.89
72308;BME280;60257;42.638;23.376;2022-12-10T08:10:35;93822.06;;;9.88;81.99
72308;BME280;60257;42.638;23.376;2022-12-10T08:13:01;93833.66;;;10.01;81.63
72308;BME280;60257;42.638;23.376;2022-12-10T08:15:27;93821.66;;;10.09;81.32
72308;BME280;60257;42.638;23.376;2022-12-10T08:17:53;93827.63;;;10.15;81.32
72308;BME280;60257;42.638;23.376;2022-12-10T08:20:19;93839.25;;;10.27;80.88
72308;BME280;60257;42.638;23.376;2022-12-10T08:22:45;93822.38;;;10.25;80.90
72308;BME280;60257;42.638;23.376;2022-12-10T08:25:10;93816.19;;;10.28;80.54
72308;BME280;60257;42.638;23.376;2022-12-10T08:27:36;93810.56;;;10.21;80.94
72308;BME280;60257;42.638;23.376;2022-12-10T08:30:01;93820.22;;;10.38;80.82
72308;BME280;60257;42.638;23.376;2022-12-10T08:32:27;93825.44;;;10.43;80.27
72308;BME280;60257;42.638;23.376;2022-12-10T08:34:52;93824.28;;;10.21;81.43
72308;BME280;60257;42.638;23.376;2022-12-10T08:37:18;93816.19;;;10.09;81.63
72308;BME280;60257;42.638;23.376;2022-12-10T08:39:43;93815.03;;;10.29;80.84
72308;BME280;60257;42.638;23.376;2022-12-10T08:42:09;93809.81;;;10.47;80.39
72308;BME280;60257;42.638;23.376;2022-12-10T08:44:34;93807.56;;;10.53;80.62
72308;BME280;60257;42.638;23.376;2022-12-10T08:47:00;93808.72;;;10.52;80.19
72308;BME280;60257;42.638;23.376;2022-12-10T08:49:25;93790.34;;;10.52;80.21
72308;BME280;60257;42.638;23.376;2022-12-10T08:51:51;93775.91;;;10.32;80.74
72308;BME280;60257;42.638;23.376;2022-12-10T08:54:16;93771.66;;;10.35;80.92
72308;BME280;60257;42.638;23.376;2022-12-10T08:56:41;93789.03;;;10.46;80.67
72308;BME280;60257;42.638;23.376;2022-12-10T08:59:07;93783.09;;;10.40;80.69
72308;BME280;60257;42.638;23.376;2022-12-10T09:01:33;93786.94;;;10.36;81.33
72308;BME280;60257;42.638;23.376;2022-12-10T09:03:58;93788.03;;;10.31;81.36
72308;BME280;60257;42.638;23.376;2022-12-10T09:06:24;93786.84;;;10.10;82.38
72308;BME280;60257;42.638;23.376;2022-12-10T09:08:50;93789.66;;;10.13;82.02
72308;BME280;60257;42.638;23.376;2022-12-10T09:11:20;93784.19;;;10.13;82.27
72308;BME280;60257;42.638;23.376;2022-12-10T09:13:45;93779.34;;;10.07;82.60
72308;BME280;60257;42.638;23.376;2022-12-10T09:16:11;93748.69;;;9.97;82.30
72308;BME280;60257;42.638;23.376;2022-12-10T09:18:37;93754.69;;;10.07;82.71
72308;BME280;60257;42.638;23.376;2022-12-10T09:21:07;93771.88;;;10.03;82.89
72308;BME280;60257;42.638;23.376;2022-12-10T09:23:33;93786.91;;;10.13;82.67
72308;BME280;60257;42.638;23.376;2022-12-10T09:25:59;93778.31;;;9.92;83.61
72308;BME280;60257;42.638;23.376;2022-12-10T09:28:25;93770.47;;;9.90;83.61
72308;BME280;60257;42.638;23.376;2022-12-10T09:30:58;93762.25;;;9.90;83.91
72308;BME280;60257;42.638;23.376;2022-12-10T09:33:25;93756.78;;;9.90;83.96
72308;BME280;60257;42.638;23.376;2022-12-10T09:35:50;93769.97;;;10.08;83.02
72308;BME280;60257;42.638;23.376;2022-12-10T09:38:16;93760.25;;;10.10;82.99
72308;BME280;60257;42.638;23.376;2022-12-10T09:41:02;93743.88;;;10.14;83.35
72308;BME280;60257;42.638;23.376;2022-12-10T09:43:48;93728.53;;;10.09;83.61
72308;BME280;60257;42.638;23.376;2022-12-10T09:46:21;93738.13;;;10.19;83.52
72308;BME280;60257;42.638;23.376;2022-12-10T09:51:22;93731.38;;;10.16;82.74
72308;BME280;60257;42.638;23.376;2022-12-10T09:53:51;93721.00;;;10.25;82.34
72308;BME280;60257;42.638;23.376;2022-12-10T09:56:29;93735.59;;;10.33;82.57
72308;BME280;60257;42.638;23.376;2022-12-10T09:59:00;93730.31;;;10.21;83.56
72308;BME280;60257;42.638;23.376;2022-12-10T10:01:29;93723.69;;;10.22;83.59
72308;BME280;60257;42.638;23.376;2022-12-10T10:03:56;93727.72;;;10.31;83.11
72308;BME280;60257;42.638;23.376;2022-12-10T10:06:23;93732.69;;;10.49;82.75
72308;BME280;60257;42.638;23.376;2022-12-10T10:08:53;93716.78;;;10.58;82.02
72308;BME280;60257;42.638;23.376;2022-12-10T10:11:23;93692.94;;;10.62;82.17
72308;BME280;60257;42.638;23.376;2022-12-10T10:16:37;93715.75;;;10.96;80.96
72308;BME280;60257;42.638;23.376;2022-12-10T10:19:09;93720.94;;;11.04;81.30
72308;BME280;60257;42.638;23.376;2022-12-10T10:21:42;93726.63;;;11.18;80.38
72308;BME280;60257;42.638;23.376;2022-12-10T10:24:25;93702.66;;;11.15;80.23
72308;BME280;60257;42.638;23.376;2022-12-10T10:26:57;93718.19;;;11.34;79.94
72308;BME280;60257;42.638;23.376;2022-12-10T10:29:23;93710.75;;;11.38;79.81
72308;BME280;60257;42.638;23.376;2022-12-10T10:34:40;93686.91;;;11.42;79.01
72308;BME280;60257;42.638;23.376;2022-12-10T10:37:06;93657.63;;;11.53;78.57
72308;BME280;60257;42.638;23.376;2022-12-10T10:39:37;93681.84;;;11.85;77.66
72308;BME280;60257;42.638;23.376;2022-12-10T10:42:08;93679.63;;;12.01;77.70
72308;BME280;60257;42.638;23.376;2022-12-10T10:44:36;93679.06;;;12.25;78.13
72308;BME280;60257;42.638;23.376;2022-12-10T10:49:51;93667.22;;;12.14;75.54
72308;BME280;60257;42.638;23.376;2022-12-10T10:52:17;93678.78;;;12.41;75.62
72308;BME280;60257;42.638;23.376;2022-12-10T10:54:44;93654.91;;;12.56;75.54
72308;BME280;60257;42.638;23.376;2022-12-10T10:59:49;93674.53;;;12.51;74.93
72308;BME280;60257;42.638;23.376;2022-12-10T11:02:24;93651.47;;;12.69;73.50
72308;BME280;60257;42.638;23.376;2022-12-10T11:04:54;93638.53;;;12.81;72.82
72308;BME280;60257;42.638;23.376;2022-12-10T11:07:37;93620.13;;;12.92;72.98
72308;BME280;60257;42.638;23.376;2022-12-10T11:10:24;93638.19;;;12.89;73.85
72308;BME280;60257;42.638;23.376;2022-12-10T11:15:40;93607.97;;;12.96;73.07
72308;BME280;60257;42.638;23.376;2022-12-10T11:18:43;93614.31;;;13.07;73.54
72308;BME280;60257;42.638;23.376;2022-12-10T11:21:19;93598.28;;;13.31;73.06
72308;BME280;60257;42.638;23.376;2022-12-10T11:23:51;93600.69;;;13.64;71.63
72308;BME280;60257;42.638;23.376;2022-12-10T11:45:50;93585.72;;;13.51;73.11
72308;BME280;60257;42.638;23.376;2022-12-10T11:50:50;93586.53;;;13.62;72.64
72308;BME280;60257;42.638;23.376;2022-12-10T12:12:20;93560.91;;;13.37;73.35
72308;BME280;60257;42.638;23.376;2022-12-10T12:15:03;93564.03;;;13.32;74.09
72308;BME280;60257;42.638;23.376;2022-12-10T12:17:33;93560.09;;;13.33;73.57
72308;BME280;60257;42.638;23.376;2022-12-10T12:20:16;93552.25;;;13.31;73.71
72308;BME280;60257;42.638;23.376;2022-12-10T12:22:47;93555.38;;;13.33;73.58
72308;BME280;60257;42.638;23.376;2022-12-10T12:25:28;93563.66;;;13.30;73.39
72308;BME280;60257;42.638;23.376;2022-12-10T12:30:37;93551.84;;;13.29;73.99
72308;BME280;60257;42.638;23.376;2022-12-10T12:33:47;93531.38;;;13.34;73.58
72308;BME280;60257;42.638;23.376;2022-12-10T12:36:24;93499.13;;;13.20;73.69
72308;BME280;60257;42.638;23.376;2022-12-10T12:41:40;93528.66;;;13.23;73.92
72308;BME280;60257;42.638;23.376;2022-12-10T12:44:17;93517.25;;;13.35;73.58
72308;BME280;60257;42.638;23.376;2022-12-10T12:46:47;93488.13;;;13.31;73.40
72308;BME280;60257;42.638;23.376;2022-12-10T12:49:27;93495.22;;;13.28;73.61
72308;BME280;60257;42.638;23.376;2022-12-10T12:52:02;93497.97;;;13.35;73.14
72308;BME280;60257;42.638;23.376;2022-12-10T12:54:32;93492.84;;;13.41;72.82
72308;BME280;60257;42.638;23.376;2022-12-10T12:59:55;93481.81;;;13.34;72.71
72308;BME280;60257;42.638;23.376;2022-12-10T13:05:27;93476.31;;;13.27;73.06
72308;BME280;60257;42.638;23.376;2022-12-10T13:08:25;93472.41;;;13.31;73.25
72308;BME280;60257;42.638;23.376;2022-12-10T13:11:15;93477.50;;;13.33;73.20
72308;BME280;60257;42.638;23.376;2022-12-10T13:14:03;93492.06;;;13.33;73.12
72308;BME280;60257;42.638;23.376;2022-12-10T13:22:10;93506.56;;;13.05;74.42
72308;BME280;60257;42.638;23.376;2022-12-10T13:48:56;93445.97;;;12.88;75.28
72308;BME280;60257;42.638;23.376;2022-12-10T13:56:58;93417.28;;;12.82;75.34
72308;BME280;60257;42.638;23.376;2022-12-10T14:05:11;93425.56;;;12.85;75.25
72308;BME280;60257;42.638;23.376;2022-12-10T14:07:43;93423.56;;;12.82;75.31
72308;BME280;60257;42.638;23.376;2022-12-10T14:10:16;93414.53;;;12.75;75.25
72308;BME280;60257;42.638;23.376;2022-12-10T14:12:43;93423.19;;;12.77;75.68
72308;BME280;60257;42.638;23.376;2022-12-10T14:15:22;93425.13;;;12.62;76.31
72308;BME280;60257;42.638;23.376;2022-12-10T14:17:51;93424.69;;;12.63;76.46
72308;BME280;60257;42.638;23.376;2022-12-10T14:20:23;93423.91;;;12.63;76.05
72308;BME280;60257;42.638;23.376;2022-12-10T14:22:54;93413.72;;;12.63;76.08
72308;BME280;60257;42.638;23.376;2022-12-10T14:25:44;93413.72;;;12.60;75.95
72308;BME280;60257;42.638;23.376;2022-12-10T14:28:13;93396.41;;;12.52;76.30
72308;BME280;60257;42.638;23.376;2022-12-10T14:30:46;93396.78;;;12.54;76.42
72308;BME280;60257;42.638;23.376;2022-12-10T14:33:17;93394.03;;;12.47;76.35
72308;BME280;60257;42.638;23.376;2022-12-10T14:35:47;93385.00;;;12.50;75.92
72308;BME280;60257;42.638;23.376;2022-12-10T14:38:23;93392.09;;;12.51;75.72
72308;BME280;60257;42.638;23.376;2022-12-10T14:40:53;93388.94;;;12.49;75.88
72308;BME280;60257;42.638;23.376;2022-12-10T14:43:34;93381.84;;;12.41;76.11
72308;BME280;60257;42.638;23.376;2022-12-10T14:46:03;93389.31;;;12.44;76.07
72308;BME280;60257;42.638;23.376;2022-12-10T14:48:29;93377.50;;;12.33;76.14
72308;BME280;60257;42.638;23.376;2022-12-10T14:51:03;93372.81;;;12.37;76.21
72308;BME280;60257;42.638;23.376;2022-12-10T14:53:28;93372.03;;;12.37;76.41
72308;BME280;60257;42.638;23.376;2022-12-10T14:55:57;93359.84;;;12.30;76.27
72308;BME280;60257;42.638;23.376;2022-12-10T15:01:03;93375.94;;;12.28;76.83
72308;BME280;60257;42.638;23.376;2022-12-10T15:03:35;93377.09;;;12.27;76.40
72308;BME280;60257;42.638;23.376;2022-12-10T15:06:08;93380.25;;;12.29;76.75
72308;BME280;60257;42.638;23.376;2022-12-10T15:08:34;93378.28;;;12.26;76.79
72308;BME280;60257;42.638;23.376;2022-12-10T15:11:01;93392.03;;;12.33;76.42
72308;BME280;60257;42.638;23.376;2022-12-10T15:13:42;93399.47;;;12.22;77.20
72308;BME280;60257;42.638;23.376;2022-12-10T15:19:38;93386.88;;;12.18;77.37
72308;BME280;60257;42.638;23.376;2022-12-10T15:22:21;93386.09;;;12.17;77.10
72308;BME280;60257;42.638;23.376;2022-12-10T15:24:47;93376.69;;;12.18;76.71
72308;BME280;60257;42.638;23.376;2022-12-10T15:27:18;93371.19;;;12.18;76.69
72308;BME280;60257;42.638;23.376;2022-12-10T15:29:45;93372.38;;;12.21;76.91